This is the latest recevied weather packets stored in our database for station/object IK1YPD-13. If no packets are shown the sender has not sent any weather packets the latest 10 day(s).
| Time | Temp. | Humidity | Pressure | Rain* | Wind** | Luminosity | Snow |
|---|---|---|---|---|---|---|---|
| 1787935055 | 29.44° C | 77% | 1010 hPa | - | - | - | - |
| 1787934155 | 29.44° C | 78% | 1010 hPa | - | - | - | - |
| 1787933255 | 29.44° C | 78% | 1010 hPa | - | - | - | - |
| 1787932355 | 29.44° C | 78% | 1010 hPa | - | - | - | - |
| 1787931455 | 29.44° C | 76% | 1010 hPa | - | - | - | - |
| 1787930555 | 30° C | 74% | 1010 hPa | - | - | - | - |
| 1787929655 | 30° C | 72% | 1010 hPa | - | - | - | - |
| 1787928755 | 29.44° C | 73% | 1010 hPa | - | - | - | - |
| 1787927855 | 30° C | 69% | 1009 hPa | - | - | - | - |
| 1787926955 | 30.56° C | 65% | 1009 hPa | - | - | - | - |
| 1787926055 | 31.11° C | 61% | 1009 hPa | - | - | - | - |
| 1787925155 | 30.56° C | 62% | 1010 hPa | - | - | - | - |
| 1787924254 | 30.56° C | 60% | 1010 hPa | - | - | - | - |
| 1787923354 | 30.56° C | 59% | 1010 hPa | - | - | - | - |
| 1787922454 | 30.56° C | 59% | 1010 hPa | - | - | - | - |
| 1787921554 | 30° C | 59% | 1010 hPa | - | - | - | - |
| 1787920654 | 31.11° C | 57% | 1010 hPa | - | - | - | - |
| 1787919754 | 31.11° C | 54% | 1010 hPa | - | - | - | - |
| 1787918854 | 32.22° C | 54% | 1010 hPa | - | - | - | - |
| 1787917954 | 31.67° C | 55% | 1010 hPa | - | - | - | - |
| 1787917054 | 31.67° C | 58% | 1010 hPa | - | - | - | - |
| 1787916154 | 31.11° C | 62% | 1011 hPa | - | - | - | - |
| 1787915254 | 31.11° C | 61% | 1012 hPa | - | - | - | - |
| 1787914354 | 31.11° C | 61% | 1012 hPa | - | - | - | - |
| 1787913454 | 30.56° C | 60% | 1012 hPa | - | - | - | - |
* Rain since midnight (hover to see other rain measurements)
** Current wind speed in m/s (hover to see current wind gust speed)